createdAt,value
2022-10-17T00:00:36.331Z,7.80
2022-10-17T00:03:02.970Z,8.27
2022-10-17T00:05:29.736Z,8.02
2022-10-17T00:07:56.329Z,8.27
2022-10-17T00:10:23.341Z,9.48
2022-10-17T00:12:51.996Z,9.02
2022-10-17T00:15:21.327Z,8.70
2022-10-17T00:17:48.145Z,8.93
2022-10-17T00:20:16.065Z,8.32
2022-10-17T00:22:42.885Z,8.85
2022-10-17T00:25:10.198Z,8.98
2022-10-17T00:27:39.078Z,9.50
2022-10-17T00:30:09.829Z,7.97
2022-10-17T00:32:36.604Z,8.07
2022-10-17T00:35:04.456Z,8.95
2022-10-17T00:37:32.359Z,8.05
2022-10-17T00:39:59.510Z,7.88
2022-10-17T00:42:27.842Z,8.32
2022-10-17T00:45:20.295Z,7.35
2022-10-17T00:47:55.323Z,7.97
2022-10-17T00:50:22.340Z,7.13
2022-10-17T00:52:50.430Z,7.10
2022-10-17T00:55:25.240Z,7.55
2022-10-17T00:57:52.849Z,7.40
2022-10-17T01:00:20.528Z,7.28
2022-10-17T01:02:48.077Z,7.55
2022-10-17T01:05:17.248Z,6.85
2022-10-17T01:07:45.792Z,7.25
2022-10-17T01:10:13.991Z,7.38
2022-10-17T01:13:24.190Z,6.72
2022-10-17T01:15:55.728Z,6.43
2022-10-17T01:18:35.937Z,6.13
2022-10-17T01:21:30.757Z,6.40
2022-10-17T01:24:42.204Z,5.88
2022-10-17T01:27:43.027Z,6.85
2022-10-17T01:30:34.103Z,6.97
2022-10-17T01:33:17.088Z,7.47
2022-10-17T01:36:20.521Z,7.28
2022-10-17T01:39:02.509Z,7.07
2022-10-17T01:41:49.224Z,8.38
2022-10-17T01:44:34.415Z,6.78
2022-10-17T01:47:08.907Z,7.40
2022-10-17T01:49:39.142Z,7.30
2022-10-17T01:52:18.598Z,7.95
2022-10-17T01:55:08.128Z,6.63
2022-10-17T01:57:46.282Z,7.53
2022-10-17T02:00:19.412Z,6.47
2022-10-17T02:02:56.884Z,8.38
2022-10-17T02:05:30.644Z,6.85
2022-10-17T02:07:57.321Z,6.80
2022-10-17T02:10:52.842Z,5.93
2022-10-17T02:13:41.256Z,7.10
2022-10-17T02:16:53.627Z,7.28
2022-10-17T02:19:29.755Z,6.45
2022-10-17T02:25:10.813Z,6.38
2022-10-17T02:27:47.829Z,6.93
2022-10-17T02:30:59.419Z,6.28
2022-10-17T02:33:34.437Z,6.53
2022-10-17T02:36:08.813Z,6.65
2022-10-17T02:38:35.687Z,6.60
2022-10-17T02:41:05.054Z,6.50
2022-10-17T02:43:31.688Z,7.22
2022-10-17T02:45:59.144Z,6.45
2022-10-17T02:48:35.503Z,6.47
2022-10-17T02:51:13.717Z,6.15
2022-10-17T02:54:04.427Z,6.68
2022-10-17T02:56:39.318Z,6.32
2022-10-17T02:59:09.832Z,6.28
2022-10-17T03:01:38.004Z,6.70
2022-10-17T03:04:13.860Z,7.25
2022-10-17T03:06:42.491Z,7.70
2022-10-17T03:09:09.365Z,6.78
2022-10-17T03:11:36.074Z,6.18
2022-10-17T03:14:02.884Z,7.07
2022-10-17T03:16:29.604Z,6.72
2022-10-17T03:18:56.465Z,6.78
2022-10-17T03:21:23.074Z,7.05
2022-10-17T03:23:51.002Z,5.75
2022-10-17T03:26:19.921Z,6.40
2022-10-17T03:28:48.543Z,6.25
2022-10-17T03:31:17.763Z,6.53
2022-10-17T03:33:45.623Z,5.65
2022-10-17T03:36:16.927Z,7.07
2022-10-17T03:38:45.673Z,5.78
2022-10-17T03:41:12.845Z,5.88
2022-10-17T03:43:39.915Z,6.57
2022-10-17T03:46:07.488Z,7.28
2022-10-17T03:48:35.096Z,6.20
2022-10-17T03:51:05.604Z,6.03
2022-10-17T03:53:34.723Z,5.50
2022-10-17T03:56:20.921Z,6.15
2022-10-17T03:58:56.218Z,6.30
2022-10-17T04:01:23.944Z,5.82
2022-10-17T04:03:56.269Z,6.10
2022-10-17T04:06:22.953Z,5.85
2022-10-17T04:08:50.284Z,6.20
2022-10-17T04:11:22.414Z,6.05
2022-10-17T04:13:54.966Z,5.93
2022-10-17T04:16:22.782Z,6.43
2022-10-17T04:19:03.130Z,5.65
2022-10-17T04:21:35.505Z,5.57
2022-10-17T04:24:06.326Z,6.05
2022-10-17T04:26:51.035Z,5.82
2022-10-17T04:29:18.812Z,5.63
2022-10-17T04:31:49.753Z,6.55
2022-10-17T04:34:32.630Z,6.00
2022-10-17T04:36:59.315Z,6.00
2022-10-17T04:39:26.652Z,6.32
2022-10-17T04:41:53.642Z,5.95
2022-10-17T04:44:20.800Z,5.65
2022-10-17T04:46:51.185Z,5.45
2022-10-17T04:49:18.033Z,5.18
2022-10-17T04:51:47.866Z,5.93
2022-10-17T04:54:23.423Z,5.60
2022-10-17T04:56:57.060Z,6.43
2022-10-17T04:59:23.792Z,5.20
2022-10-17T05:01:59.377Z,6.20
2022-10-17T05:04:27.012Z,5.30
2022-10-17T05:06:53.631Z,5.55
2022-10-17T05:09:38.877Z,5.67
2022-10-17T05:12:09.447Z,4.85
2022-10-17T05:14:38.663Z,5.85
2022-10-17T05:17:05.228Z,5.43
2022-10-17T05:19:32.172Z,5.32
2022-10-17T05:21:59.386Z,5.97
2022-10-17T05:24:25.939Z,6.00
2022-10-17T05:26:53.214Z,5.80
2022-10-17T05:29:20.065Z,5.85
2022-10-17T05:31:52.190Z,5.43
2022-10-17T05:34:19.510Z,5.78
2022-10-17T05:36:46.273Z,5.45
2022-10-17T05:39:19.380Z,5.05
2022-10-17T05:41:47.090Z,5.50
2022-10-17T05:44:13.832Z,5.65
2022-10-17T05:46:44.998Z,5.70
2022-10-17T05:49:25.231Z,4.95
2022-10-17T05:51:59.759Z,5.10
2022-10-17T05:54:27.211Z,5.22
2022-10-17T05:56:55.438Z,5.07
2022-10-17T05:59:27.232Z,5.35
2022-10-17T06:01:58.068Z,6.22
2022-10-17T06:04:27.754Z,5.43
2022-10-17T06:06:56.170Z,5.97
2022-10-17T06:09:23.936Z,5.65
2022-10-17T06:11:53.155Z,5.63
2022-10-17T06:14:20.634Z,5.53
2022-10-17T06:16:50.510Z,6.00
2022-10-17T06:19:17.318Z,5.22
2022-10-17T06:21:45.630Z,5.40
2022-10-17T06:24:14.769Z,6.53
2022-10-17T06:26:42.758Z,5.80
2022-10-17T06:29:10.946Z,6.20
2022-10-17T06:31:43.500Z,5.90
2022-10-17T06:34:10.529Z,5.68
2022-10-17T06:36:38.680Z,5.60
2022-10-17T06:39:05.859Z,4.35
2022-10-17T06:41:47.366Z,5.65
2022-10-17T06:44:18.141Z,4.78
2022-10-17T06:47:03.200Z,6.25
2022-10-17T06:49:29.958Z,4.57
2022-10-17T06:52:14.665Z,5.40
2022-10-17T06:54:51.826Z,5.00
2022-10-17T06:57:41.652Z,4.93
2022-10-17T07:00:40.758Z,4.47
2022-10-17T07:03:07.556Z,4.82
2022-10-17T07:05:34.157Z,5.18
2022-10-17T07:08:00.743Z,4.32
2022-10-17T07:10:27.322Z,4.53
2022-10-17T07:12:53.884Z,4.35
2022-10-17T07:15:20.472Z,4.65
2022-10-17T07:17:53.153Z,4.18
2022-10-17T07:20:19.903Z,4.63
2022-10-17T07:22:46.558Z,4.28
2022-10-17T07:25:13.169Z,3.88
2022-10-17T07:27:53.039Z,4.45
2022-10-17T07:30:21.836Z,4.03
2022-10-17T07:33:03.557Z,3.40
2022-10-17T07:35:30.971Z,4.45
2022-10-17T07:37:57.585Z,4.22
2022-10-17T07:40:24.179Z,4.22
2022-10-17T07:42:51.905Z,3.97
2022-10-17T07:45:19.780Z,4.20
2022-10-17T07:47:46.932Z,4.35
2022-10-17T07:50:15.960Z,4.25
2022-10-17T07:52:43.232Z,3.78
2022-10-17T07:55:10.152Z,4.10
2022-10-17T07:57:36.813Z,3.95
2022-10-17T08:00:03.977Z,3.63
2022-10-17T08:02:39.806Z,3.35
2022-10-17T08:05:06.925Z,4.13
2022-10-17T08:07:33.637Z,3.35
2022-10-17T08:10:00.366Z,3.35
2022-10-17T08:12:27.302Z,3.13
2022-10-17T08:14:54.322Z,3.30
2022-10-17T08:17:21.603Z,3.05
2022-10-17T08:19:48.204Z,2.78
2022-10-17T08:22:14.785Z,2.80
2022-10-17T08:24:42.729Z,2.90
2022-10-17T08:27:11.505Z,3.17
2022-10-17T08:29:39.260Z,3.38
2022-10-17T08:32:09.659Z,2.75
2022-10-17T08:34:36.543Z,3.20
2022-10-17T08:37:03.644Z,2.95
2022-10-17T08:39:30.303Z,2.60
2022-10-17T08:42:22.044Z,3.10
2022-10-17T08:45:32.682Z,2.90
2022-10-17T08:48:04.273Z,2.60
2022-10-17T08:50:59.224Z,3.00
2022-10-17T08:53:34.878Z,2.90
2022-10-17T08:56:30.360Z,3.38
2022-10-17T08:59:43.620Z,2.88
2022-10-17T09:02:38.865Z,3.10
2022-10-17T09:05:26.586Z,3.55
2022-10-17T09:08:02.300Z,2.80
2022-10-17T09:13:19.522Z,2.63
2022-10-17T09:16:47.578Z,3.05
2022-10-17T09:19:29.785Z,3.28
2022-10-17T09:22:28.346Z,2.70
2022-10-17T09:25:03.399Z,3.20
2022-10-17T09:27:48.825Z,2.90
2022-10-17T09:30:55.559Z,3.10
2022-10-17T09:33:53.792Z,3.03
2022-10-17T09:36:38.252Z,2.72
2022-10-17T09:39:19.904Z,2.70
2022-10-17T09:41:58.907Z,2.83
2022-10-17T09:44:32.556Z,2.80
2022-10-17T09:47:24.134Z,3.53
2022-10-17T09:49:51.818Z,4.07
2022-10-17T09:52:33.405Z,3.13
2022-10-17T09:55:27.799Z,2.72
2022-10-17T09:58:01.410Z,2.70
2022-10-17T10:00:38.387Z,3.05
2022-10-17T10:03:19.572Z,2.72
2022-10-17T10:06:05.930Z,2.65
2022-10-17T10:08:51.642Z,2.95
2022-10-17T10:13:50.470Z,3.17
2022-10-17T10:16:24.325Z,4.00
2022-10-17T10:18:52.455Z,3.50
2022-10-17T10:21:27.366Z,3.05
2022-10-17T10:24:13.998Z,3.50
2022-10-17T10:26:54.236Z,3.55
2022-10-17T10:29:30.817Z,3.15
2022-10-17T10:32:10.619Z,3.55
2022-10-17T10:34:39.411Z,3.40
2022-10-17T10:37:18.788Z,3.13
2022-10-17T10:39:55.436Z,3.55
2022-10-17T10:42:42.619Z,3.50
2022-10-17T10:45:35.947Z,2.97
2022-10-17T10:48:23.311Z,3.35
2022-10-17T10:51:07.919Z,2.97
2022-10-17T10:54:04.551Z,3.38
2022-10-17T10:56:41.024Z,2.92
2022-10-17T10:59:25.319Z,3.00
2022-10-17T11:01:58.193Z,3.00
2022-10-17T11:04:59.406Z,3.30
2022-10-17T11:07:31.936Z,3.22
2022-10-17T11:10:21.530Z,3.55
2022-10-17T11:13:21.268Z,3.60
2022-10-17T11:16:27.474Z,3.50
2022-10-17T11:19:22.174Z,4.32
2022-10-17T11:22:09.726Z,4.55
2022-10-17T11:24:48.718Z,4.35
2022-10-17T11:27:15.614Z,3.75
2022-10-17T11:29:44.649Z,4.38
2022-10-17T11:32:20.734Z,4.82
2022-10-17T11:34:54.635Z,4.40
2022-10-17T11:37:27.612Z,3.90
2022-10-17T11:40:02.513Z,4.63
2022-10-17T11:42:38.317Z,3.80
2022-10-17T11:45:18.012Z,4.00
2022-10-17T11:47:58.972Z,4.47
2022-10-17T11:53:31.443Z,3.85
2022-10-17T11:56:01.019Z,4.40
2022-10-17T11:58:52.625Z,3.35
2022-10-17T12:01:51.728Z,3.15
2022-10-17T12:04:49.447Z,3.38
2022-10-17T12:07:25.152Z,3.53
2022-10-17T12:12:37.099Z,3.88
2022-10-17T12:15:12.802Z,3.95
2022-10-17T12:17:54.484Z,3.67
2022-10-17T12:20:21.417Z,3.65
2022-10-17T12:22:51.145Z,3.65
2022-10-17T12:25:32.074Z,4.35
2022-10-17T12:28:37.370Z,4.82
2022-10-17T12:31:15.990Z,4.50
2022-10-17T12:33:59.338Z,4.38
2022-10-17T12:36:28.692Z,3.97
2022-10-17T12:39:04.174Z,4.10
2022-10-17T12:44:28.214Z,4.38
2022-10-17T12:47:36.892Z,5.40
2022-10-17T12:50:25.220Z,4.70
2022-10-17T12:53:02.291Z,4.60
2022-10-17T12:55:29.165Z,4.18
2022-10-17T12:58:01.583Z,4.18
2022-10-17T13:00:36.305Z,4.78
2022-10-17T13:03:17.996Z,4.95
2022-10-17T13:05:52.889Z,4.80
2022-10-17T13:08:40.076Z,4.35
2022-10-17T13:11:07.988Z,4.60
2022-10-17T13:13:45.432Z,4.82
2022-10-17T13:16:37.440Z,4.40
2022-10-17T13:19:18.323Z,4.60
2022-10-17T13:21:53.355Z,4.47
2022-10-17T13:24:39.019Z,4.93
2022-10-17T13:27:25.959Z,4.72
2022-10-17T13:29:56.226Z,3.15
2022-10-17T13:32:25.226Z,3.55
2022-10-17T13:35:17.142Z,3.22
2022-10-17T13:37:51.560Z,3.85
2022-10-17T13:40:49.017Z,3.92
2022-10-17T13:43:22.138Z,3.20
2022-10-17T13:45:53.057Z,3.05
2022-10-17T13:48:28.302Z,2.60
2022-10-17T13:51:03.445Z,3.00
2022-10-17T13:53:41.307Z,2.80
2022-10-17T13:56:30.073Z,3.55
2022-10-17T13:59:11.503Z,2.35
2022-10-17T14:01:38.409Z,2.63
2022-10-17T14:04:10.274Z,2.55
2022-10-17T14:06:47.646Z,2.47
2022-10-17T14:09:26.695Z,2.83
2022-10-17T14:12:13.273Z,2.42
2022-10-17T14:15:08.793Z,2.85
2022-10-17T14:17:34.357Z,2.13
2022-10-17T14:20:34.476Z,2.45
2022-10-17T14:23:17.602Z,2.67
2022-10-17T14:25:41.043Z,2.17
2022-10-17T14:28:09.434Z,2.97
2022-10-17T14:31:01.413Z,2.90
2022-10-17T14:33:32.127Z,2.33
2022-10-17T14:36:01.423Z,2.33
2022-10-17T14:38:30.054Z,2.90
2022-10-17T14:41:41.265Z,2.63
2022-10-17T14:44:07.822Z,2.20
2022-10-17T14:46:36.430Z,2.58
2022-10-17T14:49:31.295Z,2.03
2022-10-17T14:52:18.200Z,2.00
2022-10-17T14:54:48.044Z,3.30
2022-10-17T14:57:33.691Z,2.17
2022-10-17T15:00:00.366Z,2.20
2022-10-17T15:02:30.090Z,2.97
2022-10-17T15:04:57.251Z,2.63
2022-10-17T15:07:24.333Z,3.22
2022-10-17T15:09:53.968Z,2.83
2022-10-17T15:12:25.304Z,2.78
2022-10-17T15:14:53.003Z,3.15
2022-10-17T15:17:25.634Z,3.00
2022-10-17T15:19:52.513Z,3.80
2022-10-17T15:22:19.415Z,3.40
2022-10-17T15:24:46.421Z,4.43
2022-10-17T15:27:26.223Z,3.97
2022-10-17T15:29:53.094Z,3.45
2022-10-17T15:32:19.920Z,3.70
2022-10-17T15:34:46.783Z,3.53
2022-10-17T15:37:25.435Z,3.88
2022-10-17T15:39:55.026Z,3.83
2022-10-17T15:42:31.170Z,3.28
2022-10-17T15:44:58.497Z,3.10
2022-10-17T15:47:33.176Z,3.28
2022-10-17T15:50:01.424Z,3.72
2022-10-17T15:52:28.362Z,3.30
2022-10-17T15:54:56.500Z,3.88
2022-10-17T15:57:29.541Z,3.55
2022-10-17T15:59:58.719Z,3.80
2022-10-17T16:02:25.977Z,4.18
2022-10-17T16:04:52.963Z,3.72
2022-10-17T16:07:20.769Z,4.60
2022-10-17T16:09:47.414Z,4.53
2022-10-17T16:12:26.807Z,4.28
2022-10-17T16:14:53.455Z,4.28
2022-10-17T16:17:20.145Z,5.18
2022-10-17T16:19:46.800Z,5.15
2022-10-17T16:22:36.419Z,5.13
2022-10-17T16:25:19.294Z,5.05
2022-10-17T16:27:47.907Z,5.47
2022-10-17T16:30:15.555Z,5.55
2022-10-17T16:32:42.817Z,5.68
2022-10-17T16:35:16.236Z,5.45
2022-10-17T16:37:42.877Z,5.57
2022-10-17T16:40:10.566Z,6.38
2022-10-17T16:42:37.196Z,6.78
2022-10-17T16:45:04.245Z,5.95
2022-10-17T16:47:30.815Z,6.82
2022-10-17T16:49:57.446Z,5.22
2022-10-17T16:52:24.115Z,5.20
2022-10-17T16:54:50.803Z,6.20
2022-10-17T16:57:17.383Z,6.78
2022-10-17T16:59:43.932Z,7.32
2022-10-17T17:02:12.058Z,6.47
2022-10-17T17:04:38.985Z,5.63
2022-10-17T17:07:05.645Z,5.07
2022-10-17T17:09:32.259Z,5.95
2022-10-17T17:11:59.386Z,5.03
2022-10-17T17:14:26.141Z,4.60
2022-10-17T17:16:52.841Z,6.03
2022-10-17T17:19:20.411Z,5.25
2022-10-17T17:21:53.051Z,6.25
2022-10-17T17:24:21.455Z,5.15
2022-10-17T17:26:56.368Z,6.55
2022-10-17T17:29:24.774Z,6.72
2022-10-17T17:31:51.752Z,6.35
2022-10-17T17:34:18.622Z,5.97
2022-10-17T17:36:45.808Z,6.20
2022-10-17T17:39:14.540Z,5.78
2022-10-17T17:41:42.985Z,7.13
2022-10-17T17:44:15.656Z,6.40
2022-10-17T17:46:44.083Z,6.45
2022-10-17T17:49:11.466Z,6.60
2022-10-17T17:51:38.545Z,7.25
2022-10-17T17:54:05.306Z,7.55
2022-10-17T17:56:32.236Z,6.75
2022-10-17T17:59:02.078Z,6.90
2022-10-17T18:01:35.028Z,6.57
2022-10-17T18:04:01.695Z,6.47
2022-10-17T18:06:28.927Z,7.75
2022-10-17T18:08:59.226Z,6.90
2022-10-17T18:11:27.257Z,6.22
2022-10-17T18:14:00.840Z,5.95
2022-10-17T18:16:29.080Z,6.20
2022-10-17T18:18:56.951Z,5.35
2022-10-17T18:21:24.250Z,3.92
2022-10-17T18:23:51.850Z,4.68
2022-10-17T18:26:18.753Z,5.00
2022-10-17T18:28:45.527Z,4.18
2022-10-17T18:31:24.983Z,3.88
2022-10-17T18:33:53.676Z,4.53
2022-10-17T18:36:21.230Z,3.58
2022-10-17T18:38:48.695Z,3.35
2022-10-17T18:41:20.011Z,4.35
2022-10-17T18:43:48.355Z,4.40
2022-10-17T18:46:30.322Z,3.10
2022-10-17T18:48:57.187Z,3.15
2022-10-17T18:51:25.798Z,3.60
2022-10-17T18:53:56.271Z,3.60
2022-10-17T18:56:23.825Z,3.50
2022-10-17T18:58:50.987Z,3.47
2022-10-17T19:01:21.017Z,4.13
2022-10-17T19:03:49.905Z,4.80
2022-10-17T19:06:21.319Z,4.05
2022-10-17T19:08:48.208Z,3.63
2022-10-17T19:11:17.749Z,4.22
2022-10-17T19:16:37.467Z,3.65
2022-10-17T19:19:08.065Z,4.30
2022-10-17T19:21:34.819Z,4.50
2022-10-17T19:24:05.642Z,4.20
2022-10-17T19:26:35.845Z,3.65
2022-10-17T19:29:04.369Z,4.80
2022-10-17T19:31:32.190Z,3.78
2022-10-17T19:33:59.457Z,3.75
2022-10-17T19:36:33.270Z,3.55
2022-10-17T19:39:06.316Z,4.07
2022-10-17T19:41:33.663Z,4.53
2022-10-17T19:44:00.795Z,3.38
2022-10-17T19:46:29.393Z,3.40
2022-10-17T19:48:57.100Z,3.42
2022-10-17T19:51:25.608Z,3.70
2022-10-17T19:53:54.711Z,3.38
2022-10-17T19:56:22.857Z,3.85
2022-10-17T19:58:50.795Z,3.75
2022-10-17T20:01:27.440Z,3.75
2022-10-17T20:03:55.384Z,3.58
2022-10-17T20:06:22.850Z,3.90
2022-10-17T20:08:50.522Z,4.20
2022-10-17T20:11:23.523Z,4.28
2022-10-17T20:13:50.837Z,3.75
2022-10-17T20:16:24.096Z,3.78
2022-10-17T20:18:55.534Z,3.45
2022-10-17T20:21:27.932Z,4.90
2022-10-17T20:23:55.521Z,4.32
2022-10-17T20:26:33.503Z,5.40
2022-10-17T20:29:08.736Z,5.45
2022-10-17T20:31:36.021Z,5.07
2022-10-17T20:34:03.385Z,4.90
2022-10-17T20:36:30.025Z,4.82
2022-10-17T20:38:58.467Z,4.45
2022-10-17T20:41:27.349Z,3.25
2022-10-17T20:43:55.450Z,3.92
2022-10-17T20:46:36.430Z,3.92
2022-10-17T20:49:03.924Z,4.18
2022-10-17T20:51:30.854Z,4.07
2022-10-17T20:56:31.090Z,3.13
2022-10-17T20:59:01.237Z,4.15
2022-10-17T21:01:29.741Z,3.50
2022-10-17T21:03:59.700Z,3.72
2022-10-17T21:06:29.156Z,4.18
2022-10-17T21:08:56.902Z,4.10
2022-10-17T21:11:28.135Z,4.03
2022-10-17T21:14:00.838Z,5.00
2022-10-17T21:16:30.066Z,4.70
2022-10-17T21:18:58.078Z,4.40
2022-10-17T21:21:34.330Z,3.72
2022-10-17T21:24:07.063Z,4.03
2022-10-17T21:26:37.299Z,4.85
2022-10-17T21:29:05.850Z,4.53
2022-10-17T21:31:38.715Z,4.57
2022-10-17T21:34:12.459Z,3.75
2022-10-17T21:36:39.551Z,4.03
2022-10-17T21:41:38.057Z,4.55
2022-10-17T21:44:18.660Z,4.07
2022-10-17T21:46:46.612Z,4.40
2022-10-17T21:49:16.699Z,3.60
2022-10-17T21:51:44.615Z,3.85
2022-10-17T21:54:11.633Z,4.32
2022-10-17T21:56:38.293Z,4.28
2022-10-17T21:59:05.751Z,4.47
2022-10-17T22:01:38.950Z,4.30
2022-10-17T22:04:10.161Z,4.82
2022-10-17T22:06:41.127Z,5.00
2022-10-17T22:09:25.837Z,5.82
2022-10-17T22:11:57.315Z,3.92
2022-10-17T22:14:26.678Z,4.72
2022-10-17T22:16:53.948Z,4.82
2022-10-17T22:19:26.699Z,5.57
2022-10-17T22:21:53.589Z,3.75
2022-10-17T22:26:53.649Z,4.55
2022-10-17T22:29:20.808Z,4.82
2022-10-17T22:31:47.650Z,5.70
2022-10-17T22:34:16.225Z,4.80
2022-10-17T22:36:43.097Z,4.60
2022-10-17T22:39:11.181Z,4.53
2022-10-17T22:41:37.842Z,4.78
2022-10-17T22:44:04.635Z,4.72
2022-10-17T22:46:31.285Z,4.70
2022-10-17T22:48:57.897Z,5.05
2022-10-17T22:53:56.172Z,5.10
2022-10-17T22:56:23.522Z,5.07
2022-10-17T22:58:51.117Z,5.20
2022-10-17T23:01:23.877Z,4.68
2022-10-17T23:03:52.518Z,5.53
2022-10-17T23:06:20.558Z,5.53
2022-10-17T23:08:48.273Z,5.07
2022-10-17T23:11:15.196Z,5.40
2022-10-17T23:13:41.924Z,5.07
2022-10-17T23:16:09.086Z,5.10
2022-10-17T23:18:37.816Z,4.82
2022-10-17T23:21:04.948Z,5.93
2022-10-17T23:23:31.661Z,5.68
2022-10-17T23:26:07.815Z,6.47
2022-10-17T23:28:35.499Z,6.50
2022-10-17T23:31:22.821Z,6.15
2022-10-17T23:33:50.070Z,7.45
2022-10-17T23:36:20.118Z,7.07
2022-10-17T23:38:48.548Z,6.10
2022-10-17T23:41:16.324Z,6.30
2022-10-17T23:43:43.984Z,6.72
2022-10-17T23:46:11.003Z,6.72
2022-10-17T23:48:38.693Z,7.05
2022-10-17T23:51:07.192Z,7.25
2022-10-17T23:53:34.073Z,6.40
2022-10-17T23:56:00.684Z,6.60
2022-10-17T23:58:27.322Z,6.53
